Česky Dansk Deutsch English Español Suomi Français Magyar Italiano Nederlands norsk Polski Português svenska Türkçe

 

Het Weer

Tulln (Oostenrijk)

13:50, 17 augustus 2016 (GMT)

NWNNE
WE
SWSSE
Home            
Tulln Krems-Langenlois Wien / Schwechat-Flughafen Niederosterreich / Lugplatz Voslau Niederosterreich / Wiener Neustadt-Ost Flugplatz Bratislava Ivanka Brno / Turany Szombathely Kunovice Oberosterreich / Freistadt Flugplatz Piestany Punitz-Gussing Piestany Horsching Aus-Afb Linz / Hoersching-Flughafen Nitra Holesov Graz-Thalerhof-Flughafen Wels Zeltweg Papa Aigen Im Ennstal Murska Sobota

Om een weerknop op uw website of weblog te plaatsen, copieer onderstaande code en plak die in uw pagina. In het eerste vakje staat HTML-code, in het tweede vakje UBB-code.


Add to Google

Details

Wind speed:1 bf, 3 kn, 1.5 m/s, 3.5 miles/h, 5.6 km/h
Wind direction:Variable
Temperature:24°C, 75°F
Gefühlte Temperatur:26°C, 78°F
Dew-point:10°C, 50°F
Atmospheric pressure:1012 hPa, 759.1 mmHg, 29.88 inHg, 0.999 atm
Relative humidity:41.2 %
METAR:LOXT 171350Z VRB03KT 45KM FEW060SC SCT070SC 24/10 Q1012 NOSIG RMK BKN

Snelkoppelingen

Actuele weersinformatie van de hele wereld. Voeg locaties toe met het plus (+) symbool. Deze snelkoppelingen kunnen worden toegevoegd aan Google.

Lid van de Technetium groep

website free tracking
StatCounter NetStat W3C Validator

28-05-2020 05:12:00
astro.technetium.be money.technetium.be phote.technetium.be tafeltennistafel.technetium.be www.ligfiets.net